sensor_id;sensor_type;location;lat;lon;timestamp;P1;durP1;ratioP1;P2;durP2;ratioP2
8544;SDS011;4310;51.054;6.994;2022-09-14T00:00:24;146.60;;;137.72;;
8544;SDS011;4310;51.054;6.994;2022-09-14T00:01:29;152.20;;;143.32;;
8544;SDS011;4310;51.054;6.994;2022-09-14T00:03:44;149.67;;;140.70;;
8544;SDS011;4310;51.054;6.994;2022-09-14T00:04:48;149.02;;;140.15;;
8544;SDS011;4310;51.054;6.994;2022-09-14T00:05:52;142.98;;;134.35;;
8544;SDS011;4310;51.054;6.994;2022-09-14T00:06:56;141.05;;;132.47;;
8544;SDS011;4310;51.054;6.994;2022-09-14T00:08:00;140.80;;;132.10;;
8544;SDS011;4310;51.054;6.994;2022-09-14T00:09:04;143.52;;;134.95;;
8544;SDS011;4310;51.054;6.994;2022-09-14T00:10:09;138.35;;;129.65;;
8544;SDS011;4310;51.054;6.994;2022-09-14T00:11:13;143.47;;;134.90;;
8544;SDS011;4310;51.054;6.994;2022-09-14T00:12:17;144.60;;;135.68;;
8544;SDS011;4310;51.054;6.994;2022-09-14T00:13:21;151.97;;;142.57;;
8544;SDS011;4310;51.054;6.994;2022-09-14T00:14:24;149.93;;;140.70;;
8544;SDS011;4310;51.054;6.994;2022-09-14T00:15:28;153.15;;;143.62;;
8544;SDS011;4310;51.054;6.994;2022-09-14T00:16:34;158.32;;;148.70;;
8544;SDS011;4310;51.054;6.994;2022-09-14T00:17:37;155.30;;;146.18;;
8544;SDS011;4310;51.054;6.994;2022-09-14T00:19:52;163.00;;;152.78;;
8544;SDS011;4310;51.054;6.994;2022-09-14T00:20:58;163.68;;;153.57;;
8544;SDS011;4310;51.054;6.994;2022-09-14T00:22:02;171.10;;;160.30;;
8544;SDS011;4310;51.054;6.994;2022-09-14T00:23:08;169.05;;;158.68;;
8544;SDS011;4310;51.054;6.994;2022-09-14T00:24:11;166.63;;;156.00;;
8544;SDS011;4310;51.054;6.994;2022-09-14T00:25:15;168.50;;;157.40;;
8544;SDS011;4310;51.054;6.994;2022-09-14T00:26:20;165.18;;;154.65;;
8544;SDS011;4310;51.054;6.994;2022-09-14T00:27:24;176.63;;;165.82;;
8544;SDS011;4310;51.054;6.994;2022-09-14T00:28:35;170.53;;;159.32;;
8544;SDS011;4310;51.054;6.994;2022-09-14T00:29:39;174.53;;;163.35;;
8544;SDS011;4310;51.054;6.994;2022-09-14T00:30:42;177.43;;;165.47;;
8544;SDS011;4310;51.054;6.994;2022-09-14T00:31:46;182.68;;;170.25;;
8544;SDS011;4310;51.054;6.994;2022-09-14T00:32:50;180.67;;;168.57;;
8544;SDS011;4310;51.054;6.994;2022-09-14T00:33:54;187.27;;;175.03;;
8544;SDS011;4310;51.054;6.994;2022-09-14T00:34:57;190.45;;;177.68;;
8544;SDS011;4310;51.054;6.994;2022-09-14T00:37:17;194.32;;;181.28;;
8544;SDS011;4310;51.054;6.994;2022-09-14T00:38:20;203.75;;;190.45;;
8544;SDS011;4310;51.054;6.994;2022-09-14T00:39:24;202.20;;;187.77;;
8544;SDS011;4310;51.054;6.994;2022-09-14T00:40:29;202.65;;;188.75;;
8544;SDS011;4310;51.054;6.994;2022-09-14T00:41:34;203.73;;;189.80;;
8544;SDS011;4310;51.054;6.994;2022-09-14T00:42:38;194.30;;;180.70;;
8544;SDS011;4310;51.054;6.994;2022-09-14T00:43:51;199.90;;;186.07;;
8544;SDS011;4310;51.054;6.994;2022-09-14T00:44:59;203.00;;;189.37;;
8544;SDS011;4310;51.054;6.994;2022-09-14T00:46:03;203.85;;;190.07;;
8544;SDS011;4310;51.054;6.994;2022-09-14T00:47:07;201.27;;;187.45;;
8544;SDS011;4310;51.054;6.994;2022-09-14T00:48:11;194.43;;;180.60;;
8544;SDS011;4310;51.054;6.994;2022-09-14T00:49:15;200.95;;;187.25;;
8544;SDS011;4310;51.054;6.994;2022-09-14T00:50:19;272.00;;;255.55;;
8544;SDS011;4310;51.054;6.994;2022-09-14T00:51:23;258.13;;;242.85;;
8544;SDS011;4310;51.054;6.994;2022-09-14T00:52:28;258.25;;;241.82;;
8544;SDS011;4310;51.054;6.994;2022-09-14T00:53:32;258.13;;;241.40;;
8544;SDS011;4310;51.054;6.994;2022-09-14T00:54:36;260.40;;;243.70;;
8544;SDS011;4310;51.054;6.994;2022-09-14T00:56:53;257.60;;;240.75;;
8544;SDS011;4310;51.054;6.994;2022-09-14T00:57:57;253.25;;;237.45;;
8544;SDS011;4310;51.054;6.994;2022-09-14T00:59:04;246.85;;;230.45;;
8544;SDS011;4310;51.054;6.994;2022-09-14T01:00:08;250.03;;;233.95;;
8544;SDS011;4310;51.054;6.994;2022-09-14T01:01:12;241.50;;;225.50;;
8544;SDS011;4310;51.054;6.994;2022-09-14T01:02:16;246.68;;;230.22;;
8544;SDS011;4310;51.054;6.994;2022-09-14T01:04:33;247.63;;;230.83;;
8544;SDS011;4310;51.054;6.994;2022-09-14T01:05:42;248.30;;;231.10;;
8544;SDS011;4310;51.054;6.994;2022-09-14T01:06:47;250.55;;;232.83;;
8544;SDS011;4310;51.054;6.994;2022-09-14T01:09:14;234.60;;;218.30;;
8544;SDS011;4310;51.054;6.994;2022-09-14T01:10:20;231.78;;;215.25;;
8544;SDS011;4310;51.054;6.994;2022-09-14T01:11:32;224.70;;;207.35;;
8544;SDS011;4310;51.054;6.994;2022-09-14T01:12:45;219.18;;;203.20;;
8544;SDS011;4310;51.054;6.994;2022-09-14T01:13:42;220.27;;;203.55;;
8544;SDS011;4310;51.054;6.994;2022-09-14T01:14:47;216.80;;;200.15;;
8544;SDS011;4310;51.054;6.994;2022-09-14T01:15:53;212.82;;;196.18;;
8544;SDS011;4310;51.054;6.994;2022-09-14T01:17:00;220.30;;;203.42;;
8544;SDS011;4310;51.054;6.994;2022-09-14T01:18:03;211.62;;;194.70;;
8544;SDS011;4310;51.054;6.994;2022-09-14T01:20:23;211.72;;;194.95;;
8544;SDS011;4310;51.054;6.994;2022-09-14T01:21:28;210.50;;;193.37;;
8544;SDS011;4310;51.054;6.994;2022-09-14T01:22:34;209.92;;;193.50;;
8544;SDS011;4310;51.054;6.994;2022-09-14T01:23:41;208.85;;;192.22;;
8544;SDS011;4310;51.054;6.994;2022-09-14T01:24:47;205.25;;;189.05;;
8544;SDS011;4310;51.054;6.994;2022-09-14T01:26:08;202.60;;;186.47;;
8544;SDS011;4310;51.054;6.994;2022-09-14T01:27:18;199.72;;;183.50;;
8544;SDS011;4310;51.054;6.994;2022-09-14T01:28:25;194.50;;;178.72;;
8544;SDS011;4310;51.054;6.994;2022-09-14T01:29:29;195.25;;;179.05;;
8544;SDS011;4310;51.054;6.994;2022-09-14T01:30:37;187.55;;;171.25;;
8544;SDS011;4310;51.054;6.994;2022-09-14T01:31:44;182.93;;;166.75;;
8544;SDS011;4310;51.054;6.994;2022-09-14T01:32:49;196.50;;;179.13;;
8544;SDS011;4310;51.054;6.994;2022-09-14T01:33:54;194.37;;;178.07;;
8544;SDS011;4310;51.054;6.994;2022-09-14T01:34:59;194.67;;;176.93;;
8544;SDS011;4310;51.054;6.994;2022-09-14T01:36:04;199.30;;;182.80;;
8544;SDS011;4310;51.054;6.994;2022-09-14T01:38:21;197.47;;;181.28;;
8544;SDS011;4310;51.054;6.994;2022-09-14T01:39:26;193.72;;;177.53;;
8544;SDS011;4310;51.054;6.994;2022-09-14T01:40:32;204.18;;;186.97;;
8544;SDS011;4310;51.054;6.994;2022-09-14T01:42:49;205.45;;;188.50;;
8544;SDS011;4310;51.054;6.994;2022-09-14T01:43:53;210.20;;;192.32;;
8544;SDS011;4310;51.054;6.994;2022-09-14T01:45:00;213.10;;;195.57;;
8544;SDS011;4310;51.054;6.994;2022-09-14T01:46:09;222.63;;;204.53;;
8544;SDS011;4310;51.054;6.994;2022-09-14T01:47:10;231.97;;;213.30;;
8544;SDS011;4310;51.054;6.994;2022-09-14T01:48:15;230.52;;;211.87;;
8544;SDS011;4310;51.054;6.994;2022-09-14T01:49:21;236.87;;;218.70;;
8544;SDS011;4310;51.054;6.994;2022-09-14T01:51:40;244.10;;;224.70;;
8544;SDS011;4310;51.054;6.994;2022-09-14T01:52:44;249.42;;;229.50;;
8544;SDS011;4310;51.054;6.994;2022-09-14T01:53:49;246.32;;;226.77;;
8544;SDS011;4310;51.054;6.994;2022-09-14T01:54:56;256.98;;;236.32;;
8544;SDS011;4310;51.054;6.994;2022-09-14T01:56:02;252.65;;;232.90;;
8544;SDS011;4310;51.054;6.994;2022-09-14T01:57:07;257.73;;;236.77;;
8544;SDS011;4310;51.054;6.994;2022-09-14T01:58:12;258.90;;;238.05;;
8544;SDS011;4310;51.054;6.994;2022-09-14T01:59:17;261.65;;;241.78;;
8544;SDS011;4310;51.054;6.994;2022-09-14T02:00:21;269.07;;;247.67;;
8544;SDS011;4310;51.054;6.994;2022-09-14T02:01:26;270.93;;;248.55;;
8544;SDS011;4310;51.054;6.994;2022-09-14T02:02:31;268.05;;;245.88;;
8544;SDS011;4310;51.054;6.994;2022-09-14T02:03:37;272.17;;;250.30;;
8544;SDS011;4310;51.054;6.994;2022-09-14T02:04:43;285.05;;;262.90;;
8544;SDS011;4310;51.054;6.994;2022-09-14T02:05:48;297.65;;;276.18;;
8544;SDS011;4310;51.054;6.994;2022-09-14T02:06:52;325.00;;;301.12;;
8544;SDS011;4310;51.054;6.994;2022-09-14T02:07:57;329.50;;;306.55;;
8544;SDS011;4310;51.054;6.994;2022-09-14T02:09:01;342.02;;;317.82;;
8544;SDS011;4310;51.054;6.994;2022-09-14T02:10:07;350.13;;;326.20;;
8544;SDS011;4310;51.054;6.994;2022-09-14T02:11:12;374.85;;;350.25;;
8544;SDS011;4310;51.054;6.994;2022-09-14T02:12:15;390.62;;;366.00;;
8544;SDS011;4310;51.054;6.994;2022-09-14T02:14:30;392.10;;;367.45;;
8544;SDS011;4310;51.054;6.994;2022-09-14T02:16:46;388.50;;;363.25;;
8544;SDS011;4310;51.054;6.994;2022-09-14T02:17:50;397.80;;;371.82;;
8544;SDS011;4310;51.054;6.994;2022-09-14T02:18:53;395.60;;;369.55;;
8544;SDS011;4310;51.054;6.994;2022-09-14T02:19:58;399.30;;;373.65;;
8544;SDS011;4310;51.054;6.994;2022-09-14T02:21:03;375.68;;;351.70;;
8544;SDS011;4310;51.054;6.994;2022-09-14T02:22:07;364.17;;;340.73;;
8544;SDS011;4310;51.054;6.994;2022-09-14T02:24:23;326.05;;;304.95;;
8544;SDS011;4310;51.054;6.994;2022-09-14T02:26:41;297.10;;;277.43;;
8544;SDS011;4310;51.054;6.994;2022-09-14T02:27:45;296.82;;;276.77;;
8544;SDS011;4310;51.054;6.994;2022-09-14T02:30:01;323.73;;;302.30;;
8544;SDS011;4310;51.054;6.994;2022-09-14T02:31:09;316.63;;;295.35;;
8544;SDS011;4310;51.054;6.994;2022-09-14T02:32:14;296.73;;;275.35;;
8544;SDS011;4310;51.054;6.994;2022-09-14T02:33:20;296.07;;;275.15;;
8544;SDS011;4310;51.054;6.994;2022-09-14T02:34:26;272.73;;;253.25;;
8544;SDS011;4310;51.054;6.994;2022-09-14T02:35:32;263.82;;;245.35;;
8544;SDS011;4310;51.054;6.994;2022-09-14T02:36:37;269.02;;;249.80;;
8544;SDS011;4310;51.054;6.994;2022-09-14T02:37:42;252.90;;;233.90;;
8544;SDS011;4310;51.054;6.994;2022-09-14T02:38:49;279.38;;;259.70;;
8544;SDS011;4310;51.054;6.994;2022-09-14T02:41:06;252.45;;;234.12;;
8544;SDS011;4310;51.054;6.994;2022-09-14T02:42:13;206.00;;;188.45;;
8544;SDS011;4310;51.054;6.994;2022-09-14T02:43:20;189.70;;;173.50;;
8544;SDS011;4310;51.054;6.994;2022-09-14T02:44:26;177.45;;;162.50;;
8544;SDS011;4310;51.054;6.994;2022-09-14T02:45:30;176.90;;;160.37;;
8544;SDS011;4310;51.054;6.994;2022-09-14T02:46:35;165.65;;;150.15;;
8544;SDS011;4310;51.054;6.994;2022-09-14T02:48:54;166.45;;;151.42;;
8544;SDS011;4310;51.054;6.994;2022-09-14T02:50:00;166.73;;;150.85;;
8544;SDS011;4310;51.054;6.994;2022-09-14T02:52:17;167.25;;;150.85;;
8544;SDS011;4310;51.054;6.994;2022-09-14T02:53:23;167.18;;;149.62;;
8544;SDS011;4310;51.054;6.994;2022-09-14T02:54:27;167.40;;;151.85;;
8544;SDS011;4310;51.054;6.994;2022-09-14T02:55:34;164.93;;;149.53;;
8544;SDS011;4310;51.054;6.994;2022-09-14T02:56:39;162.70;;;147.28;;
8544;SDS011;4310;51.054;6.994;2022-09-14T02:57:59;158.55;;;143.95;;
8544;SDS011;4310;51.054;6.994;2022-09-14T02:59:03;162.37;;;147.95;;
8544;SDS011;4310;51.054;6.994;2022-09-14T03:00:10;160.52;;;145.43;;
8544;SDS011;4310;51.054;6.994;2022-09-14T03:01:14;154.93;;;140.40;;
8544;SDS011;4310;51.054;6.994;2022-09-14T03:02:18;155.95;;;141.55;;
8544;SDS011;4310;51.054;6.994;2022-09-14T03:03:22;149.38;;;135.90;;
8544;SDS011;4310;51.054;6.994;2022-09-14T03:05:38;153.53;;;140.25;;
8544;SDS011;4310;51.054;6.994;2022-09-14T03:06:42;161.90;;;147.60;;
8544;SDS011;4310;51.054;6.994;2022-09-14T03:07:46;168.80;;;153.45;;
8544;SDS011;4310;51.054;6.994;2022-09-14T03:08:49;164.03;;;150.15;;
8544;SDS011;4310;51.054;6.994;2022-09-14T03:09:53;166.37;;;152.20;;
8544;SDS011;4310;51.054;6.994;2022-09-14T03:10:57;159.78;;;145.68;;
8544;SDS011;4310;51.054;6.994;2022-09-14T03:12:03;162.55;;;148.50;;
8544;SDS011;4310;51.054;6.994;2022-09-14T03:14:19;157.67;;;142.82;;
8544;SDS011;4310;51.054;6.994;2022-09-14T03:15:23;160.83;;;143.97;;
8544;SDS011;4310;51.054;6.994;2022-09-14T03:16:26;165.07;;;149.65;;
8544;SDS011;4310;51.054;6.994;2022-09-14T03:18:42;168.07;;;151.32;;
8544;SDS011;4310;51.054;6.994;2022-09-14T03:19:45;172.78;;;156.35;;
8544;SDS011;4310;51.054;6.994;2022-09-14T03:20:49;170.43;;;154.42;;
8544;SDS011;4310;51.054;6.994;2022-09-14T03:21:53;174.37;;;157.90;;
8544;SDS011;4310;51.054;6.994;2022-09-14T03:22:57;176.72;;;154.90;;
8544;SDS011;4310;51.054;6.994;2022-09-14T03:24:01;167.90;;;152.97;;
8544;SDS011;4310;51.054;6.994;2022-09-14T03:25:06;169.37;;;152.67;;
8544;SDS011;4310;51.054;6.994;2022-09-14T03:26:10;184.65;;;166.40;;
8544;SDS011;4310;51.054;6.994;2022-09-14T03:27:14;174.70;;;156.45;;
8544;SDS011;4310;51.054;6.994;2022-09-14T03:28:18;168.95;;;153.25;;
8544;SDS011;4310;51.054;6.994;2022-09-14T03:30:33;157.50;;;143.05;;
8544;SDS011;4310;51.054;6.994;2022-09-14T03:31:37;160.12;;;145.95;;
8544;SDS011;4310;51.054;6.994;2022-09-14T03:32:41;157.15;;;143.60;;
8544;SDS011;4310;51.054;6.994;2022-09-14T03:34:56;159.90;;;145.38;;
8544;SDS011;4310;51.054;6.994;2022-09-14T03:36:07;163.25;;;148.87;;
8544;SDS011;4310;51.054;6.994;2022-09-14T03:37:05;161.25;;;146.98;;
8544;SDS011;4310;51.054;6.994;2022-09-14T03:38:09;163.82;;;149.77;;
8544;SDS011;4310;51.054;6.994;2022-09-14T03:39:13;163.07;;;149.95;;
8544;SDS011;4310;51.054;6.994;2022-09-14T03:40:17;162.85;;;149.18;;
8544;SDS011;4310;51.054;6.994;2022-09-14T03:41:23;161.82;;;148.72;;
8544;SDS011;4310;51.054;6.994;2022-09-14T03:42:26;172.93;;;159.27;;
8544;SDS011;4310;51.054;6.994;2022-09-14T03:43:30;179.57;;;166.20;;
8544;SDS011;4310;51.054;6.994;2022-09-14T03:44:34;184.55;;;171.75;;
8544;SDS011;4310;51.054;6.994;2022-09-14T03:45:38;174.00;;;161.57;;
8544;SDS011;4310;51.054;6.994;2022-09-14T03:46:42;185.55;;;172.72;;
8544;SDS011;4310;51.054;6.994;2022-09-14T03:47:46;197.65;;;184.43;;
8544;SDS011;4310;51.054;6.994;2022-09-14T03:48:50;204.37;;;190.73;;
8544;SDS011;4310;51.054;6.994;2022-09-14T03:49:54;205.20;;;191.92;;
8544;SDS011;4310;51.054;6.994;2022-09-14T03:50:59;190.68;;;177.22;;
8544;SDS011;4310;51.054;6.994;2022-09-14T03:52:03;184.10;;;170.90;;
8544;SDS011;4310;51.054;6.994;2022-09-14T03:53:07;189.13;;;176.40;;
8544;SDS011;4310;51.054;6.994;2022-09-14T03:54:10;179.20;;;166.57;;
8544;SDS011;4310;51.054;6.994;2022-09-14T03:55:14;186.22;;;173.30;;
8544;SDS011;4310;51.054;6.994;2022-09-14T03:56:19;178.47;;;166.92;;
8544;SDS011;4310;51.054;6.994;2022-09-14T03:57:23;174.53;;;164.25;;
8544;SDS011;4310;51.054;6.994;2022-09-14T03:58:30;167.90;;;158.70;;
8544;SDS011;4310;51.054;6.994;2022-09-14T04:00:46;158.32;;;149.93;;
8544;SDS011;4310;51.054;6.994;2022-09-14T04:01:49;163.22;;;154.65;;
8544;SDS011;4310;51.054;6.994;2022-09-14T04:02:53;159.82;;;151.60;;
8544;SDS011;4310;51.054;6.994;2022-09-14T04:03:57;157.35;;;148.95;;
8544;SDS011;4310;51.054;6.994;2022-09-14T04:05:00;162.90;;;154.15;;
8544;SDS011;4310;51.054;6.994;2022-09-14T04:06:05;151.37;;;143.22;;
8544;SDS011;4310;51.054;6.994;2022-09-14T04:07:09;159.40;;;150.97;;
8544;SDS011;4310;51.054;6.994;2022-09-14T04:08:13;159.25;;;150.90;;
8544;SDS011;4310;51.054;6.994;2022-09-14T04:09:16;153.85;;;145.53;;
8544;SDS011;4310;51.054;6.994;2022-09-14T04:10:20;149.53;;;141.43;;
8544;SDS011;4310;51.054;6.994;2022-09-14T04:11:24;151.13;;;142.17;;
8544;SDS011;4310;51.054;6.994;2022-09-14T04:12:32;144.10;;;135.95;;
8544;SDS011;4310;51.054;6.994;2022-09-14T04:13:34;147.72;;;139.28;;
8544;SDS011;4310;51.054;6.994;2022-09-14T04:15:56;152.82;;;144.10;;
8544;SDS011;4310;51.054;6.994;2022-09-14T04:17:00;162.53;;;153.50;;
8544;SDS011;4310;51.054;6.994;2022-09-14T04:19:16;167.50;;;158.68;;
8544;SDS011;4310;51.054;6.994;2022-09-14T04:20:20;159.93;;;151.63;;
8544;SDS011;4310;51.054;6.994;2022-09-14T04:21:24;167.03;;;158.22;;
8544;SDS011;4310;51.054;6.994;2022-09-14T04:22:29;164.93;;;155.72;;
8544;SDS011;4310;51.054;6.994;2022-09-14T04:23:33;170.02;;;160.85;;
8544;SDS011;4310;51.054;6.994;2022-09-14T04:24:37;175.35;;;165.65;;
8544;SDS011;4310;51.054;6.994;2022-09-14T04:25:41;171.75;;;162.07;;
8544;SDS011;4310;51.054;6.994;2022-09-14T04:26:46;188.00;;;177.02;;
8544;SDS011;4310;51.054;6.994;2022-09-14T04:27:49;194.97;;;184.22;;
8544;SDS011;4310;51.054;6.994;2022-09-14T04:28:53;191.05;;;180.70;;
8544;SDS011;4310;51.054;6.994;2022-09-14T04:29:57;185.00;;;174.60;;
8544;SDS011;4310;51.054;6.994;2022-09-14T04:32:12;189.13;;;179.60;;
8544;SDS011;4310;51.054;6.994;2022-09-14T04:33:16;179.18;;;169.80;;
8544;SDS011;4310;51.054;6.994;2022-09-14T04:34:20;170.50;;;161.60;;
8544;SDS011;4310;51.054;6.994;2022-09-14T04:35:24;169.80;;;160.72;;
8544;SDS011;4310;51.054;6.994;2022-09-14T04:36:28;173.57;;;163.60;;
8544;SDS011;4310;51.054;6.994;2022-09-14T04:37:32;170.60;;;161.57;;
8544;SDS011;4310;51.054;6.994;2022-09-14T04:38:36;175.10;;;165.92;;
8544;SDS011;4310;51.054;6.994;2022-09-14T04:39:40;168.40;;;159.60;;
8544;SDS011;4310;51.054;6.994;2022-09-14T04:40:44;159.90;;;151.57;;
8544;SDS011;4310;51.054;6.994;2022-09-14T04:41:47;155.85;;;147.55;;
8544;SDS011;4310;51.054;6.994;2022-09-14T04:42:51;164.37;;;155.72;;
8544;SDS011;4310;51.054;6.994;2022-09-14T04:43:55;160.65;;;152.02;;
8544;SDS011;4310;51.054;6.994;2022-09-14T04:44:59;157.80;;;149.62;;
8544;SDS011;4310;51.054;6.994;2022-09-14T04:46:05;154.43;;;146.03;;
8544;SDS011;4310;51.054;6.994;2022-09-14T04:47:09;152.95;;;144.90;;
8544;SDS011;4310;51.054;6.994;2022-09-14T04:48:13;156.10;;;147.20;;
8544;SDS011;4310;51.054;6.994;2022-09-14T04:49:16;156.78;;;148.00;;
8544;SDS011;4310;51.054;6.994;2022-09-14T04:50:22;151.93;;;142.98;;
8544;SDS011;4310;51.054;6.994;2022-09-14T04:51:26;143.35;;;135.43;;
8544;SDS011;4310;51.054;6.994;2022-09-14T04:52:30;142.18;;;134.12;;
8544;SDS011;4310;51.054;6.994;2022-09-14T04:53:34;137.97;;;130.50;;
8544;SDS011;4310;51.054;6.994;2022-09-14T04:57:01;126.22;;;119.15;;
8544;SDS011;4310;51.054;6.994;2022-09-14T04:58:04;125.20;;;118.28;;
8544;SDS011;4310;51.054;6.994;2022-09-14T04:59:08;128.12;;;121.55;;
8544;SDS011;4310;51.054;6.994;2022-09-14T05:00:13;129.72;;;123.05;;
8544;SDS011;4310;51.054;6.994;2022-09-14T05:01:17;140.62;;;133.22;;
8544;SDS011;4310;51.054;6.994;2022-09-14T05:02:21;136.68;;;129.57;;
8544;SDS011;4310;51.054;6.994;2022-09-14T05:04:36;137.55;;;130.78;;
8544;SDS011;4310;51.054;6.994;2022-09-14T05:05:40;137.47;;;130.73;;
8544;SDS011;4310;51.054;6.994;2022-09-14T05:06:44;133.93;;;127.02;;
8544;SDS011;4310;51.054;6.994;2022-09-14T05:07:47;132.43;;;125.95;;
8544;SDS011;4310;51.054;6.994;2022-09-14T05:08:51;129.95;;;123.55;;
8544;SDS011;4310;51.054;6.994;2022-09-14T05:11:07;129.42;;;122.95;;
8544;SDS011;4310;51.054;6.994;2022-09-14T05:12:11;132.20;;;125.50;;
8544;SDS011;4310;51.054;6.994;2022-09-14T05:13:15;132.20;;;126.02;;
8544;SDS011;4310;51.054;6.994;2022-09-14T05:14:19;135.82;;;129.18;;
8544;SDS011;4310;51.054;6.994;2022-09-14T05:16:34;137.03;;;130.90;;
8544;SDS011;4310;51.054;6.994;2022-09-14T05:17:38;136.05;;;129.65;;
8544;SDS011;4310;51.054;6.994;2022-09-14T05:18:42;130.27;;;124.35;;
8544;SDS011;4310;51.054;6.994;2022-09-14T05:19:46;134.85;;;128.60;;
8544;SDS011;4310;51.054;6.994;2022-09-14T05:20:50;133.95;;;127.70;;
8544;SDS011;4310;51.054;6.994;2022-09-14T05:21:53;128.62;;;122.67;;
8544;SDS011;4310;51.054;6.994;2022-09-14T05:22:57;112.77;;;108.67;;
8544;SDS011;4310;51.054;6.994;2022-09-14T05:24:02;114.92;;;110.72;;
8544;SDS011;4310;51.054;6.994;2022-09-14T05:25:06;121.17;;;116.82;;
8544;SDS011;4310;51.054;6.994;2022-09-14T05:26:11;123.72;;;119.33;;
8544;SDS011;4310;51.054;6.994;2022-09-14T05:27:15;119.77;;;115.47;;
8544;SDS011;4310;51.054;6.994;2022-09-14T05:28:18;120.40;;;116.10;;
8544;SDS011;4310;51.054;6.994;2022-09-14T05:29:22;113.95;;;109.87;;
8544;SDS011;4310;51.054;6.994;2022-09-14T05:30:26;117.72;;;113.52;;
8544;SDS011;4310;51.054;6.994;2022-09-14T05:31:30;116.17;;;112.08;;
8544;SDS011;4310;51.054;6.994;2022-09-14T05:32:34;121.67;;;117.28;;
8544;SDS011;4310;51.054;6.994;2022-09-14T05:33:38;114.95;;;110.80;;
8544;SDS011;4310;51.054;6.994;2022-09-14T05:34:42;112.80;;;108.80;;
8544;SDS011;4310;51.054;6.994;2022-09-14T05:35:45;110.60;;;106.67;;
8544;SDS011;4310;51.054;6.994;2022-09-14T05:36:49;114.82;;;110.72;;
8544;SDS011;4310;51.054;6.994;2022-09-14T05:37:53;107.15;;;103.30;;
8544;SDS011;4310;51.054;6.994;2022-09-14T05:38:56;105.37;;;101.60;;
8544;SDS011;4310;51.054;6.994;2022-09-14T05:40:01;115.50;;;111.40;;
8544;SDS011;4310;51.054;6.994;2022-09-14T05:41:05;114.88;;;110.78;;
8544;SDS011;4310;51.054;6.994;2022-09-14T05:42:09;108.85;;;104.95;;
8544;SDS011;4310;51.054;6.994;2022-09-14T05:43:12;110.20;;;106.13;;
8544;SDS011;4310;51.054;6.994;2022-09-14T05:44:16;110.32;;;106.35;;
8544;SDS011;4310;51.054;6.994;2022-09-14T05:45:20;107.40;;;103.55;;
8544;SDS011;4310;51.054;6.994;2022-09-14T05:46:24;111.30;;;107.30;;
8544;SDS011;4310;51.054;6.994;2022-09-14T05:47:28;108.15;;;104.15;;
8544;SDS011;4310;51.054;6.994;2022-09-14T05:49:44;108.78;;;104.87;;
8544;SDS011;4310;51.054;6.994;2022-09-14T05:50:47;107.65;;;103.85;;
8544;SDS011;4310;51.054;6.994;2022-09-14T05:51:51;107.95;;;104.05;;
8544;SDS011;4310;51.054;6.994;2022-09-14T05:52:55;107.37;;;103.58;;
8544;SDS011;4310;51.054;6.994;2022-09-14T05:53:58;111.77;;;107.78;;
8544;SDS011;4310;51.054;6.994;2022-09-14T05:55:03;118.03;;;113.83;;
8544;SDS011;4310;51.054;6.994;2022-09-14T05:56:07;122.10;;;117.80;;
8544;SDS011;4310;51.054;6.994;2022-09-14T05:57:11;126.27;;;121.82;;
8544;SDS011;4310;51.054;6.994;2022-09-14T05:58:15;120.57;;;116.28;;
8544;SDS011;4310;51.054;6.994;2022-09-14T05:59:19;105.30;;;101.50;;
8544;SDS011;4310;51.054;6.994;2022-09-14T06:00:23;106.97;;;103.17;;
8544;SDS011;4310;51.054;6.994;2022-09-14T06:01:27;113.42;;;109.42;;
8544;SDS011;4310;51.054;6.994;2022-09-14T06:02:31;114.20;;;110.15;;
8544;SDS011;4310;51.054;6.994;2022-09-14T06:03:35;109.10;;;105.20;;
8544;SDS011;4310;51.054;6.994;2022-09-14T06:04:40;107.90;;;104.10;;
8544;SDS011;4310;51.054;6.994;2022-09-14T06:05:43;104.85;;;101.07;;
8544;SDS011;4310;51.054;6.994;2022-09-14T06:06:47;114.13;;;110.07;;
8544;SDS011;4310;51.054;6.994;2022-09-14T06:07:51;108.65;;;104.75;;
8544;SDS011;4310;51.054;6.994;2022-09-14T06:08:55;107.72;;;103.90;;
8544;SDS011;4310;51.054;6.994;2022-09-14T06:09:59;110.70;;;106.80;;
8544;SDS011;4310;51.054;6.994;2022-09-14T06:11:03;123.40;;;119.05;;
8544;SDS011;4310;51.054;6.994;2022-09-14T06:13:18;118.75;;;114.55;;
8544;SDS011;4310;51.054;6.994;2022-09-14T06:14:24;106.97;;;103.15;;
8544;SDS011;4310;51.054;6.994;2022-09-14T06:15:28;119.57;;;115.37;;
8544;SDS011;4310;51.054;6.994;2022-09-14T06:16:31;120.20;;;115.90;;
8544;SDS011;4310;51.054;6.994;2022-09-14T06:17:35;117.15;;;112.95;;
8544;SDS011;4310;51.054;6.994;2022-09-14T06:19:50;98.07;;;94.58;;
8544;SDS011;4310;51.054;6.994;2022-09-14T06:20:54;100.30;;;96.70;;
8544;SDS011;4310;51.054;6.994;2022-09-14T06:21:59;123.38;;;118.97;;
8544;SDS011;4310;51.054;6.994;2022-09-14T06:23:03;113.22;;;109.22;;
8544;SDS011;4310;51.054;6.994;2022-09-14T06:24:08;102.67;;;98.97;;
8544;SDS011;4310;51.054;6.994;2022-09-14T06:25:12;103.05;;;99.35;;
8544;SDS011;4310;51.054;6.994;2022-09-14T06:26:15;87.93;;;84.73;;
8544;SDS011;4310;51.054;6.994;2022-09-14T06:27:19;73.62;;;70.92;;
8544;SDS011;4310;51.054;6.994;2022-09-14T06:29:34;59.53;;;57.33;;
8544;SDS011;4310;51.054;6.994;2022-09-14T06:30:41;60.88;;;58.60;;
8544;SDS011;4310;51.054;6.994;2022-09-14T06:31:45;73.72;;;71.05;;
8544;SDS011;4310;51.054;6.994;2022-09-14T06:32:48;57.33;;;55.23;;
8544;SDS011;4310;51.054;6.994;2022-09-14T06:33:52;59.40;;;57.20;;
8544;SDS011;4310;51.054;6.994;2022-09-14T06:34:56;55.25;;;53.25;;
8544;SDS011;4310;51.054;6.994;2022-09-14T06:36:00;52.93;;;50.98;;
8544;SDS011;4310;51.054;6.994;2022-09-14T06:37:04;49.20;;;47.40;;
8544;SDS011;4310;51.054;6.994;2022-09-14T06:38:08;48.38;;;46.58;;
8544;SDS011;4310;51.054;6.994;2022-09-14T06:39:12;50.67;;;48.78;;
8544;SDS011;4310;51.054;6.994;2022-09-14T06:40:16;55.45;;;53.38;;
8544;SDS011;4310;51.054;6.994;2022-09-14T06:41:20;57.45;;;55.35;;
8544;SDS011;4310;51.054;6.994;2022-09-14T06:42:24;55.95;;;53.85;;
8544;SDS011;4310;51.054;6.994;2022-09-14T06:43:28;53.58;;;51.58;;
8544;SDS011;4310;51.054;6.994;2022-09-14T06:44:32;50.90;;;49.00;;
8544;SDS011;4310;51.054;6.994;2022-09-14T06:45:36;53.73;;;51.48;;
8544;SDS011;4310;51.054;6.994;2022-09-14T06:46:40;51.33;;;49.42;;
8544;SDS011;4310;51.054;6.994;2022-09-14T06:47:44;50.65;;;48.75;;
8544;SDS011;4310;51.054;6.994;2022-09-14T06:49:59;50.90;;;49.00;;
8544;SDS011;4310;51.054;6.994;2022-09-14T06:51:10;51.35;;;49.45;;
8544;SDS011;4310;51.054;6.994;2022-09-14T06:52:14;51.42;;;49.53;;
8544;SDS011;4310;51.054;6.994;2022-09-14T06:53:18;48.98;;;47.17;;
8544;SDS011;4310;51.054;6.994;2022-09-14T06:54:22;46.00;;;44.30;;
8544;SDS011;4310;51.054;6.994;2022-09-14T06:55:26;46.02;;;44.33;;
8544;SDS011;4310;51.054;6.994;2022-09-14T06:56:31;42.73;;;41.13;;
8544;SDS011;4310;51.054;6.994;2022-09-14T06:57:35;40.55;;;39.05;;
8544;SDS011;4310;51.054;6.994;2022-09-14T06:58:40;39.67;;;38.28;;
8544;SDS011;4310;51.054;6.994;2022-09-14T06:59:43;43.77;;;42.17;;
8544;SDS011;4310;51.054;6.994;2022-09-14T07:00:47;45.05;;;43.42;;
8544;SDS011;4310;51.054;6.994;2022-09-14T07:01:51;44.83;;;43.23;;
8544;SDS011;4310;51.054;6.994;2022-09-14T07:02:54;40.33;;;38.83;;